createdAt,value
2023-10-20T00:00:20.130Z,9.48
2023-10-20T00:02:37.103Z,9.43
2023-10-20T00:04:54.067Z,9.57
2023-10-20T00:07:10.981Z,9.50
2023-10-20T00:09:27.893Z,9.80
2023-10-20T00:11:44.752Z,10.52
2023-10-20T00:14:01.670Z,9.43
2023-10-20T00:16:18.676Z,10.07
2023-10-20T00:18:35.632Z,9.02
2023-10-20T00:20:52.472Z,10.32
2023-10-20T00:23:09.378Z,10.57
2023-10-20T00:25:26.318Z,9.75
2023-10-20T00:27:43.241Z,10.75
2023-10-20T00:30:00.164Z,11.18
2023-10-20T00:32:17.075Z,11.80
2023-10-20T00:34:34.278Z,10.35
2023-10-20T00:36:51.357Z,10.85
2023-10-20T00:39:08.265Z,10.68
2023-10-20T00:41:25.205Z,10.82
2023-10-20T00:43:42.260Z,10.88
2023-10-20T00:45:59.234Z,11.23
2023-10-20T00:48:16.159Z,11.25
2023-10-20T00:50:33.077Z,11.10
2023-10-20T00:52:50.238Z,11.55
2023-10-20T00:55:07.534Z,11.20
2023-10-20T00:57:24.803Z,11.75
2023-10-20T00:59:41.732Z,10.40
2023-10-20T01:01:58.905Z,10.98
2023-10-20T01:04:16.391Z,11.15
2023-10-20T01:06:33.342Z,9.82
2023-10-20T01:08:50.439Z,9.23
2023-10-20T01:11:07.876Z,9.55
2023-10-20T01:13:24.983Z,10.38
2023-10-20T01:15:41.890Z,9.73
2023-10-20T01:17:58.792Z,9.50
2023-10-20T01:20:15.795Z,10.13
2023-10-20T01:22:32.861Z,9.90
2023-10-20T01:24:50.778Z,9.10
2023-10-20T01:27:07.736Z,8.90
2023-10-20T01:29:24.729Z,8.57
2023-10-20T01:31:41.649Z,8.90
2023-10-20T01:33:58.567Z,8.35
2023-10-20T01:36:15.469Z,8.63
2023-10-20T01:38:32.418Z,7.32
2023-10-20T01:40:49.311Z,7.55
2023-10-20T01:43:06.184Z,7.15
2023-10-20T01:45:23.503Z,8.32
2023-10-20T01:47:40.501Z,7.07
2023-10-20T01:49:57.437Z,8.30
2023-10-20T01:52:14.541Z,7.93
2023-10-20T01:54:31.654Z,8.40
2023-10-20T01:56:48.843Z,7.55
2023-10-20T01:59:05.714Z,8.07
2023-10-20T02:01:22.710Z,7.88
2023-10-20T02:03:39.660Z,8.95
2023-10-20T02:05:57.105Z,9.00
2023-10-20T02:08:14.484Z,9.35
2023-10-20T02:10:31.409Z,10.13
2023-10-20T02:12:48.303Z,10.32
2023-10-20T02:15:05.262Z,11.00
2023-10-20T02:17:22.318Z,10.00
2023-10-20T02:19:39.235Z,10.50
2023-10-20T02:21:56.619Z,11.38
2023-10-20T02:24:13.550Z,11.25
2023-10-20T02:26:30.506Z,11.52
2023-10-20T02:28:47.407Z,10.85
2023-10-20T02:31:04.795Z,10.30
2023-10-20T02:33:22.328Z,9.57
2023-10-20T02:35:39.359Z,9.88
2023-10-20T02:37:56.827Z,9.95
2023-10-20T02:40:13.676Z,11.98
2023-10-20T02:42:30.623Z,11.85
2023-10-20T02:44:48.021Z,10.80
2023-10-20T02:47:04.958Z,9.88
2023-10-20T02:49:21.958Z,10.32
2023-10-20T02:51:39.245Z,9.75
2023-10-20T02:53:56.173Z,9.48
2023-10-20T02:56:13.158Z,9.98
2023-10-20T02:58:30.066Z,10.52
2023-10-20T03:00:47.142Z,10.73
2023-10-20T03:03:04.624Z,10.85
2023-10-20T03:05:21.740Z,11.13
2023-10-20T03:07:38.694Z,11.80
2023-10-20T03:09:55.604Z,12.38
2023-10-20T03:12:12.491Z,12.55
2023-10-20T03:14:29.599Z,13.20
2023-10-20T03:16:46.570Z,13.77
2023-10-20T03:19:03.596Z,13.30
2023-10-20T03:21:20.477Z,13.63
2023-10-20T03:23:37.390Z,13.98
2023-10-20T03:25:54.800Z,15.32
2023-10-20T03:28:11.729Z,16.20
2023-10-20T03:30:28.642Z,16.42
2023-10-20T03:32:45.652Z,15.48
2023-10-20T03:35:02.756Z,16.00
2023-10-20T03:37:19.710Z,14.35
2023-10-20T03:39:37.271Z,15.45
2023-10-20T03:41:54.519Z,15.57
2023-10-20T03:44:11.692Z,15.45
2023-10-20T03:46:28.770Z,15.98
2023-10-20T03:48:45.724Z,17.00
2023-10-20T03:51:02.643Z,16.10
2023-10-20T03:53:22.443Z,14.95
2023-10-20T03:55:39.559Z,15.75
2023-10-20T03:57:56.959Z,15.93
2023-10-20T04:00:13.837Z,15.82
2023-10-20T04:02:30.778Z,16.13
2023-10-20T04:04:47.701Z,16.90
2023-10-20T04:07:04.578Z,15.27
2023-10-20T04:09:21.636Z,15.23
2023-10-20T04:11:38.605Z,15.73
2023-10-20T04:13:55.667Z,16.38
2023-10-20T04:16:12.707Z,16.00
2023-10-20T04:18:30.030Z,15.43
2023-10-20T04:20:46.973Z,14.38
2023-10-20T04:23:04.334Z,15.70
2023-10-20T04:25:21.263Z,14.88
2023-10-20T04:27:38.201Z,15.27
2023-10-20T04:29:55.331Z,14.88
2023-10-20T04:32:12.313Z,15.02
2023-10-20T04:34:29.452Z,14.35
2023-10-20T04:36:46.788Z,14.07
2023-10-20T04:39:03.653Z,14.80
2023-10-20T04:41:20.542Z,15.15
2023-10-20T04:43:37.444Z,14.57
2023-10-20T04:45:54.345Z,14.85
2023-10-20T04:48:11.720Z,15.30
2023-10-20T04:50:28.716Z,16.02
2023-10-20T04:52:45.776Z,15.38
2023-10-20T04:55:02.637Z,15.88
2023-10-20T04:57:19.509Z,16.77
2023-10-20T04:59:36.489Z,16.92
2023-10-20T05:01:53.571Z,16.98
2023-10-20T05:04:10.517Z,15.60
2023-10-20T05:06:27.515Z,16.63
2023-10-20T05:08:44.486Z,18.05
2023-10-20T05:11:01.371Z,16.33
2023-10-20T05:13:18.289Z,17.00
2023-10-20T05:15:35.176Z,16.35
2023-10-20T05:17:52.181Z,17.70
2023-10-20T05:20:09.175Z,15.45
2023-10-20T05:22:26.088Z,16.65
2023-10-20T05:24:42.959Z,15.68
2023-10-20T05:27:00.341Z,15.57
2023-10-20T05:29:17.270Z,16.02
2023-10-20T05:31:34.641Z,17.65
2023-10-20T05:33:51.543Z,16.63
2023-10-20T05:36:09.528Z,17.27
2023-10-20T05:38:26.478Z,15.75
2023-10-20T05:40:43.646Z,17.35
2023-10-20T05:43:00.589Z,15.27
2023-10-20T05:45:17.495Z,16.13
2023-10-20T05:47:34.458Z,15.05
2023-10-20T05:49:51.537Z,16.58
2023-10-20T05:52:08.438Z,15.20
2023-10-20T05:54:25.575Z,14.32
2023-10-20T05:56:42.527Z,14.23
2023-10-20T05:58:59.428Z,13.65
2023-10-20T06:01:16.490Z,14.05
2023-10-20T06:03:38.562Z,12.95
2023-10-20T06:05:55.509Z,14.30
2023-10-20T06:08:14.677Z,12.88
2023-10-20T06:10:31.586Z,13.63
2023-10-20T06:12:48.511Z,12.75
2023-10-20T06:15:05.377Z,12.55
2023-10-20T06:17:23.538Z,11.52
2023-10-20T06:19:40.472Z,12.50
2023-10-20T06:21:57.477Z,13.45
2023-10-20T06:24:18.858Z,11.80
2023-10-20T06:26:35.854Z,13.25
2023-10-20T06:28:52.802Z,12.15
2023-10-20T06:31:11.822Z,10.90
2023-10-20T06:33:33.275Z,11.77
2023-10-20T06:35:50.212Z,12.10
2023-10-20T06:38:07.829Z,11.65
2023-10-20T06:40:26.263Z,11.48
2023-10-20T06:42:43.197Z,11.98
2023-10-20T06:45:00.309Z,12.40
2023-10-20T06:47:17.642Z,11.68
2023-10-20T06:49:34.747Z,11.45
2023-10-20T06:51:51.847Z,11.93
2023-10-20T06:54:09.018Z,10.90
2023-10-20T06:56:29.142Z,12.15
2023-10-20T06:58:46.396Z,10.25
2023-10-20T07:01:03.525Z,9.25
2023-10-20T07:03:20.621Z,11.77
2023-10-20T07:05:37.607Z,10.70
2023-10-20T07:07:54.606Z,11.07
2023-10-20T07:10:11.473Z,11.60
2023-10-20T07:12:28.435Z,10.73
2023-10-20T07:14:45.358Z,11.98
2023-10-20T07:17:02.723Z,12.95
2023-10-20T07:19:19.632Z,12.18
2023-10-20T07:21:36.561Z,11.23
2023-10-20T07:23:53.636Z,11.25
2023-10-20T07:26:10.678Z,11.50
2023-10-20T07:28:27.739Z,10.55
2023-10-20T07:30:44.750Z,11.20
2023-10-20T07:33:01.744Z,12.50
2023-10-20T07:35:18.814Z,10.77
2023-10-20T07:37:35.844Z,11.00
2023-10-20T07:39:52.714Z,10.68
2023-10-20T07:42:09.829Z,13.60
2023-10-20T07:44:26.758Z,12.23
2023-10-20T07:46:43.777Z,11.65
2023-10-20T07:49:01.108Z,10.98
2023-10-20T07:51:18.022Z,9.93
2023-10-20T07:53:35.040Z,11.15
2023-10-20T07:55:52.013Z,10.77
2023-10-20T07:58:08.959Z,10.00
2023-10-20T08:00:25.851Z,11.65
2023-10-20T08:02:43.089Z,17.15
2023-10-20T08:05:00.496Z,31.60
2023-10-20T08:07:18.301Z,22.70
2023-10-20T08:09:35.432Z,20.60
2023-10-20T08:11:52.556Z,15.52
2023-10-20T08:14:09.606Z,16.58
2023-10-20T08:16:26.612Z,12.70
2023-10-20T08:18:43.511Z,47.80
2023-10-20T08:21:00.447Z,30.55
2023-10-20T08:23:17.434Z,33.15
2023-10-20T08:25:34.420Z,30.63
2023-10-20T08:27:51.510Z,21.92
2023-10-20T08:30:08.918Z,17.60
2023-10-20T08:32:25.909Z,17.10
2023-10-20T08:34:42.867Z,11.98
2023-10-20T08:36:59.819Z,10.10
2023-10-20T08:39:16.875Z,8.93
2023-10-20T08:41:33.897Z,8.15
2023-10-20T08:43:50.865Z,8.52
2023-10-20T08:46:07.817Z,7.75
2023-10-20T08:48:24.813Z,7.20
2023-10-20T08:50:41.822Z,7.47
2023-10-20T08:52:59.226Z,7.25
2023-10-20T08:55:16.219Z,8.73
2023-10-20T08:57:34.480Z,7.47
2023-10-20T08:59:51.498Z,7.18
2023-10-20T09:02:08.468Z,6.90
2023-10-20T09:04:25.522Z,7.45
2023-10-20T09:06:42.519Z,7.45
2023-10-20T09:08:59.471Z,7.90
2023-10-20T09:11:16.562Z,7.63
2023-10-20T09:13:33.558Z,8.20
2023-10-20T09:15:50.598Z,8.13
2023-10-20T09:18:07.649Z,7.50
2023-10-20T09:20:24.593Z,9.27
2023-10-20T09:22:41.975Z,10.07
2023-10-20T09:24:59.181Z,8.98
2023-10-20T09:27:16.074Z,9.25
2023-10-20T09:29:33.270Z,8.10
2023-10-20T09:31:50.339Z,8.30
2023-10-20T09:34:10.998Z,9.23
2023-10-20T09:36:28.609Z,8.68
2023-10-20T09:38:45.788Z,9.02
2023-10-20T09:41:02.848Z,8.93
2023-10-20T09:43:26.232Z,8.50
2023-10-20T09:45:44.151Z,8.55
2023-10-20T09:48:01.178Z,9.73
2023-10-20T09:50:18.349Z,9.27
2023-10-20T09:52:37.961Z,8.65
2023-10-20T09:54:57.447Z,9.85
2023-10-20T09:57:14.421Z,9.35
2023-10-20T09:59:31.750Z,9.30
2023-10-20T10:01:49.611Z,9.55
2023-10-20T10:04:07.042Z,9.77
2023-10-20T10:06:24.041Z,9.43
2023-10-20T10:08:41.058Z,9.65
2023-10-20T10:10:58.741Z,10.10
2023-10-20T10:13:16.111Z,9.95
2023-10-20T10:15:33.364Z,10.00
2023-10-20T10:17:50.427Z,10.23
2023-10-20T10:20:07.587Z,10.18
2023-10-20T10:22:24.465Z,12.38
2023-10-20T10:24:41.552Z,12.35
2023-10-20T10:26:58.688Z,14.18
2023-10-20T10:29:16.195Z,11.35
2023-10-20T10:31:33.365Z,12.48
2023-10-20T10:33:50.548Z,13.10
2023-10-20T10:36:07.834Z,14.13
2023-10-20T10:38:25.126Z,14.60
2023-10-20T10:40:42.140Z,13.77
2023-10-20T10:42:59.036Z,13.50
2023-10-20T10:45:16.425Z,13.13
2023-10-20T10:47:33.373Z,13.13
2023-10-20T10:49:50.310Z,13.00
2023-10-20T10:52:07.869Z,11.95
2023-10-20T10:54:25.179Z,11.35
2023-10-20T10:56:47.269Z,14.32
2023-10-20T10:59:09.643Z,14.48
2023-10-20T11:01:26.587Z,13.40
2023-10-20T11:03:44.614Z,12.43
2023-10-20T11:06:01.619Z,15.30
2023-10-20T11:08:18.782Z,15.10
2023-10-20T11:10:35.815Z,13.73
2023-10-20T11:12:52.784Z,15.00
2023-10-20T11:15:10.865Z,16.48
2023-10-20T11:17:28.440Z,14.27
2023-10-20T11:19:45.628Z,15.48
2023-10-20T11:22:02.736Z,14.32
2023-10-20T11:24:19.698Z,14.23
2023-10-20T11:26:38.849Z,15.68
2023-10-20T11:28:57.841Z,15.07
2023-10-20T11:31:14.773Z,15.57
2023-10-20T11:33:31.912Z,14.55
2023-10-20T11:35:48.934Z,20.63
2023-10-20T11:38:05.910Z,20.08
2023-10-20T11:40:22.819Z,24.55
2023-10-20T11:42:42.185Z,30.75
2023-10-20T11:44:59.138Z,22.75
2023-10-20T11:47:16.126Z,18.88
2023-10-20T11:49:33.067Z,15.00
2023-10-20T11:51:50.010Z,17.42
2023-10-20T11:54:06.899Z,22.05
2023-10-20T11:56:24.469Z,20.20
2023-10-20T11:58:41.619Z,12.50
2023-10-20T12:00:59.656Z,14.45
2023-10-20T12:03:17.021Z,16.95
2023-10-20T12:05:34.147Z,13.38
2023-10-20T12:07:51.224Z,10.68
2023-10-20T12:10:08.141Z,6.63
2023-10-20T12:12:25.492Z,6.20
2023-10-20T12:14:42.488Z,4.30
2023-10-20T12:16:59.736Z,4.03
2023-10-20T12:19:16.709Z,3.55
2023-10-20T12:21:33.623Z,2.90
2023-10-20T12:23:50.591Z,2.50
2023-10-20T12:26:07.505Z,1.80
2023-10-20T12:28:25.484Z,1.98
2023-10-20T12:30:42.407Z,1.85
2023-10-20T12:32:59.824Z,2.00
2023-10-20T12:35:16.784Z,1.98
2023-10-20T12:37:33.743Z,2.85
2023-10-20T12:39:50.841Z,2.30
2023-10-20T12:42:07.783Z,1.80
2023-10-20T12:44:24.786Z,1.40
2023-10-20T12:46:41.781Z,1.20
2023-10-20T12:48:58.685Z,1.08
2023-10-20T12:51:15.706Z,0.70
2023-10-20T12:53:32.697Z,0.70
2023-10-20T12:55:49.625Z,0.47
2023-10-20T12:58:06.946Z,0.80
2023-10-20T13:00:24.277Z,0.70
2023-10-20T13:02:41.450Z,1.40
2023-10-20T13:04:58.543Z,1.42
2023-10-20T13:07:15.499Z,0.88
2023-10-20T13:09:32.823Z,1.20
2023-10-20T13:11:49.811Z,2.15
2023-10-20T13:14:06.886Z,0.77
2023-10-20T13:16:24.216Z,1.77
2023-10-20T13:18:41.142Z,1.23
2023-10-20T13:20:58.164Z,1.20
2023-10-20T13:23:15.128Z,0.60
2023-10-20T13:25:32.010Z,0.80
2023-10-20T13:27:48.933Z,1.05
2023-10-20T13:30:06.286Z,0.88
2023-10-20T13:32:23.758Z,0.70
2023-10-20T13:34:41.189Z,0.80
2023-10-20T13:36:58.089Z,0.70
2023-10-20T13:39:18.195Z,0.40
2023-10-20T13:41:50.002Z,0.57
2023-10-20T13:44:07.102Z,0.65
2023-10-20T13:46:24.161Z,0.40
2023-10-20T13:48:41.114Z,0.43
2023-10-20T13:50:58.202Z,0.90
2023-10-20T13:53:15.716Z,0.65
2023-10-20T13:55:32.731Z,0.50
2023-10-20T13:57:49.708Z,0.40
2023-10-20T14:00:06.701Z,0.40
2023-10-20T14:02:26.338Z,0.50
2023-10-20T14:04:43.443Z,0.40
2023-10-20T14:07:00.405Z,1.00
2023-10-20T14:09:17.479Z,0.85
2023-10-20T14:11:34.398Z,0.60
2023-10-20T14:13:51.316Z,1.10
2023-10-20T14:16:08.213Z,0.60
2023-10-20T14:18:25.346Z,3.45
2023-10-20T14:20:42.349Z,39.25
2023-10-20T14:22:59.261Z,9.40
2023-10-20T14:25:16.123Z,6.82
2023-10-20T14:27:33.030Z,2.70
2023-10-20T14:29:49.990Z,1.13
2023-10-20T14:32:06.908Z,2.78
2023-10-20T14:34:24.020Z,1.13
2023-10-20T14:36:40.965Z,1.50
2023-10-20T14:38:58.006Z,1.30
2023-10-20T14:41:15.114Z,1.05
2023-10-20T14:43:32.043Z,0.80
2023-10-20T14:45:49.009Z,0.60
2023-10-20T14:48:05.983Z,1.90
2023-10-20T14:50:23.080Z,1.92
2023-10-20T14:52:40.230Z,2.70
2023-10-20T14:54:57.122Z,1.90
2023-10-20T14:57:13.988Z,1.30
2023-10-20T14:59:30.898Z,1.10
2023-10-20T15:01:47.850Z,0.90
2023-10-20T15:04:17.961Z,1.48
2023-10-20T15:06:41.638Z,0.90
2023-10-20T15:08:58.576Z,1.58
2023-10-20T15:24:34.300Z,1.50
2023-10-20T15:26:51.357Z,1.50
2023-10-20T15:29:08.482Z,1.50
2023-10-20T15:31:25.910Z,1.23
2023-10-20T15:33:43.403Z,1.30
2023-10-20T15:36:00.459Z,0.90
2023-10-20T15:38:18.046Z,6.45
2023-10-20T15:40:34.946Z,5.88
2023-10-20T15:42:51.915Z,5.75
2023-10-20T15:45:09.034Z,3.97
2023-10-20T15:47:26.013Z,1.80
2023-10-20T15:49:43.166Z,1.90
2023-10-20T15:52:00.555Z,1.50
2023-10-20T15:54:17.518Z,1.80
2023-10-20T15:56:34.498Z,1.60
2023-10-20T15:58:51.471Z,3.42
2023-10-20T16:01:08.634Z,3.00
2023-10-20T16:03:25.740Z,2.67
2023-10-20T16:05:43.736Z,1.98
2023-10-20T16:08:00.688Z,1.63
2023-10-20T16:10:17.784Z,3.13
2023-10-20T16:12:34.971Z,2.03
2023-10-20T16:14:53.272Z,1.52
2023-10-20T16:17:12.286Z,2.05
2023-10-20T16:19:29.224Z,2.58
2023-10-20T16:21:46.273Z,2.30
2023-10-20T16:24:03.426Z,1.75
2023-10-20T16:26:20.394Z,1.60
2023-10-20T16:28:37.355Z,1.48
2023-10-20T16:30:54.505Z,1.42
2023-10-20T16:33:11.703Z,1.40
2023-10-20T16:35:28.697Z,1.30
2023-10-20T16:37:45.743Z,1.77
2023-10-20T16:40:02.690Z,1.50
2023-10-20T16:42:19.608Z,2.03
2023-10-20T16:44:36.645Z,1.98
2023-10-20T16:46:53.702Z,1.77
2023-10-20T16:49:10.701Z,1.65
2023-10-20T16:51:28.638Z,1.30
2023-10-20T16:53:47.896Z,1.20
2023-10-20T16:56:05.329Z,1.17
2023-10-20T16:58:22.287Z,1.27
2023-10-20T17:00:39.227Z,1.40
2023-10-20T17:02:56.645Z,1.88
2023-10-20T17:05:14.281Z,3.40
2023-10-20T17:07:31.215Z,2.67
2023-10-20T17:09:48.227Z,2.90
2023-10-20T17:12:05.794Z,3.75
2023-10-20T17:14:22.977Z,3.50
2023-10-20T17:16:41.006Z,3.92
2023-10-20T17:18:58.399Z,3.75
2023-10-20T17:21:16.586Z,2.50
2023-10-20T17:23:33.547Z,2.75
2023-10-20T17:25:50.479Z,2.55
2023-10-20T17:28:07.378Z,3.33
2023-10-20T17:30:24.358Z,2.80
2023-10-20T17:32:41.438Z,2.30
2023-10-20T17:34:58.412Z,2.35
2023-10-20T17:37:15.388Z,1.63
2023-10-20T17:39:32.286Z,1.67
2023-10-20T17:41:49.504Z,2.00
2023-10-20T17:44:06.908Z,2.85
2023-10-20T17:46:23.866Z,2.38
2023-10-20T17:48:41.052Z,2.20
2023-10-20T17:50:59.349Z,2.30
2023-10-20T17:53:16.433Z,2.38
2023-10-20T17:55:33.464Z,2.60
2023-10-20T17:57:50.422Z,3.00
2023-10-20T18:00:08.140Z,3.80
2023-10-20T18:02:25.218Z,3.22
2023-10-20T18:04:42.220Z,3.95
2023-10-20T18:06:59.231Z,3.97
2023-10-20T18:09:16.433Z,3.80
2023-10-20T18:11:33.485Z,2.72
2023-10-20T18:13:50.599Z,2.97
2023-10-20T18:16:07.687Z,2.72
2023-10-20T18:18:24.783Z,3.13
2023-10-20T18:20:42.041Z,3.63
2023-10-20T18:22:59.039Z,2.83
2023-10-20T18:25:16.109Z,2.15
2023-10-20T18:27:33.161Z,2.20
2023-10-20T18:29:50.351Z,2.25
2023-10-20T18:32:07.739Z,2.28
2023-10-20T18:34:24.674Z,2.63
2023-10-20T18:36:44.094Z,3.90
2023-10-20T18:39:01.280Z,3.90
2023-10-20T18:41:18.302Z,4.15
2023-10-20T18:43:35.452Z,6.43
2023-10-20T18:45:52.915Z,11.23
2023-10-20T18:48:10.324Z,9.25
2023-10-20T18:50:27.311Z,10.07
2023-10-20T18:52:44.301Z,8.82
2023-10-20T18:55:01.343Z,8.52
2023-10-20T18:57:18.243Z,8.27
2023-10-20T18:59:35.815Z,7.35
2023-10-20T19:01:52.897Z,6.68
2023-10-20T19:04:11.016Z,6.10
2023-10-20T19:06:28.464Z,6.22
2023-10-20T19:08:45.449Z,6.32
2023-10-20T19:11:02.422Z,6.22
2023-10-20T19:13:19.470Z,5.97
2023-10-20T19:15:36.586Z,5.60
2023-10-20T19:17:53.653Z,5.63
2023-10-20T19:20:10.570Z,5.90
2023-10-20T19:22:27.515Z,4.72
2023-10-20T19:24:44.431Z,4.57
2023-10-20T19:27:03.730Z,4.70
2023-10-20T19:29:20.654Z,4.50
2023-10-20T19:31:37.685Z,4.07
2023-10-20T19:33:54.766Z,4.68
2023-10-20T19:36:11.779Z,4.53
2023-10-20T19:38:28.929Z,4.20
2023-10-20T19:40:45.836Z,4.20
2023-10-20T19:43:02.787Z,3.40
2023-10-20T19:45:20.221Z,4.60
2023-10-20T19:47:37.501Z,4.63
2023-10-20T19:49:54.487Z,5.78
2023-10-20T19:52:11.397Z,8.30
2023-10-20T19:54:28.504Z,7.13
2023-10-20T19:56:45.437Z,6.35
2023-10-20T19:59:02.438Z,5.05
2023-10-20T20:01:19.405Z,5.22
2023-10-20T20:03:36.672Z,6.15
2023-10-20T20:05:53.643Z,7.40
2023-10-20T20:08:10.595Z,6.60
2023-10-20T20:10:27.920Z,7.72
2023-10-20T20:12:44.818Z,8.27
2023-10-20T20:15:01.792Z,8.40
2023-10-20T20:17:18.799Z,7.10
2023-10-20T20:19:35.884Z,5.82
2023-10-20T20:21:52.913Z,5.15
2023-10-20T20:24:09.946Z,4.60
2023-10-20T20:26:26.960Z,4.40
2023-10-20T20:28:43.837Z,4.13
2023-10-20T20:31:00.749Z,4.45
2023-10-20T20:33:17.715Z,4.07
2023-10-20T20:35:34.739Z,4.35
2023-10-20T20:37:52.115Z,4.70
2023-10-20T20:40:09.125Z,4.10
2023-10-20T20:42:26.137Z,4.57
2023-10-20T20:44:43.051Z,3.90
2023-10-20T20:47:00.020Z,2.95
2023-10-20T20:49:16.985Z,2.72
2023-10-20T20:51:33.876Z,3.30
2023-10-20T20:53:50.846Z,3.03
2023-10-20T20:56:07.867Z,3.05
2023-10-20T20:58:24.838Z,4.00
2023-10-20T21:00:41.740Z,2.70
2023-10-20T21:02:58.824Z,3.28
2023-10-20T21:05:15.847Z,3.58
2023-10-20T21:07:32.762Z,3.65
2023-10-20T21:09:49.650Z,3.38
2023-10-20T21:12:06.671Z,3.20
2023-10-20T21:14:23.570Z,3.50
2023-10-20T21:16:41.033Z,3.22
2023-10-20T21:18:57.893Z,2.92
2023-10-20T21:21:14.973Z,3.17
2023-10-20T21:23:32.058Z,3.50
2023-10-20T21:25:49.078Z,3.40
2023-10-20T21:28:06.066Z,3.70
2023-10-20T21:30:23.019Z,3.35
2023-10-20T21:32:40.109Z,3.63
2023-10-20T21:34:57.088Z,3.42
2023-10-20T21:37:14.136Z,3.17
2023-10-20T21:39:31.090Z,3.00
2023-10-20T21:41:48.265Z,3.78
2023-10-20T21:44:05.183Z,3.05
2023-10-20T21:46:22.201Z,3.35
2023-10-20T21:48:39.317Z,3.10
2023-10-20T21:50:56.356Z,2.90
2023-10-20T21:53:13.299Z,3.15
2023-10-20T21:55:30.200Z,3.03
2023-10-20T21:57:47.176Z,2.92
2023-10-20T22:00:04.074Z,3.17
2023-10-20T22:02:21.020Z,3.00
2023-10-20T22:04:37.976Z,2.42
2023-10-20T22:06:55.006Z,2.50
2023-10-20T22:09:11.993Z,2.45
2023-10-20T22:11:28.967Z,2.70
2023-10-20T22:13:45.882Z,1.73
2023-10-20T22:16:02.814Z,2.00
2023-10-20T22:18:20.085Z,1.88
2023-10-20T22:20:37.168Z,1.58
2023-10-20T22:22:54.057Z,1.60
2023-10-20T22:25:10.970Z,1.67
2023-10-20T22:27:27.876Z,1.95
2023-10-20T22:29:45.256Z,1.80
2023-10-20T22:32:02.216Z,1.75
2023-10-20T22:34:19.159Z,1.80
2023-10-20T22:36:36.095Z,1.77
2023-10-20T22:38:53.086Z,1.55
2023-10-20T22:41:10.265Z,2.03
2023-10-20T22:43:27.165Z,1.73
2023-10-20T22:45:44.512Z,1.80
2023-10-20T22:48:01.484Z,1.80
2023-10-20T22:50:18.394Z,1.50
2023-10-20T22:52:35.449Z,1.30
2023-10-20T22:54:52.437Z,1.50
2023-10-20T22:57:09.429Z,1.33
2023-10-20T22:59:26.351Z,1.50
2023-10-20T23:01:43.323Z,1.40
2023-10-20T23:04:00.798Z,1.40
2023-10-20T23:06:17.904Z,1.70
2023-10-20T23:08:34.925Z,1.50
2023-10-20T23:10:51.876Z,1.55
2023-10-20T23:13:08.881Z,1.50
2023-10-20T23:15:25.861Z,1.50
2023-10-20T23:17:42.868Z,1.67
2023-10-20T23:20:00.030Z,1.85
2023-10-20T23:22:16.927Z,1.70
2023-10-20T23:24:33.871Z,1.67
2023-10-20T23:26:50.775Z,1.40
2023-10-20T23:29:08.173Z,1.25
2023-10-20T23:31:25.121Z,1.17
2023-10-20T23:33:42.144Z,1.55
2023-10-20T23:35:59.555Z,1.10
2023-10-20T23:38:16.513Z,1.40
2023-10-20T23:40:33.492Z,1.40
2023-10-20T23:42:50.833Z,1.15
2023-10-20T23:45:07.896Z,1.30
2023-10-20T23:47:24.842Z,1.38
2023-10-20T23:49:41.801Z,1.33
2023-10-20T23:51:58.669Z,1.20
2023-10-20T23:54:15.731Z,1.10
2023-10-20T23:56:32.796Z,1.20
2023-10-20T23:58:49.654Z,1.13
